Bruner, MO

7:46 PM CDT on September 02, 2014 (GMT -0500)
Baxter County Regional | Change Station
CLOSE
Current Station
Airport
Location: Mountain Home,
Elevation: 925 ft
Nearby Weather Stations

Elev 925 ft 36.37 °N, 92.47 °W | Updated 53 minutes ago

Clear
Clear
75 °F
Feels Like 75 °F
N
4
Wind Variable Wind from SSE

Today
High -- | Low -- °F
--% Chance of Precip.
Yesterday
High -- | Low -- °F
Precip. -- in
6:43 AM 7:38 PM
First Quarter, 56% visible
Pressure 29.96 in
Visibility 10.0 miles
Clouds Clear
Dew Point 67 °F
Humidity 76%
Rainfall 0.39 in
Snow Depth Not available.
UV 0 out of 12
Pollen 7.10 out of 12
Ozone Good
PM2.5 Good
Flu Activity Not available.
METAR KBPK 022353Z AUTO 16003KT 10SM CLR 24/19 A2998 RMK AO2 SLP144 60001 T02390194 10256 20200 53013

More Conditions Fewer Conditions

Pressure 29.96 in
Visibility 10.0 miles
Clouds Clear
Dew Point 67 °F
Humidity 76%
Rainfall 0.39 in
Snow Depth Not available.
UV 0 out of 12
Pollen 7.10 out of 12
Ozone Good
PM2.5 Good
Flu Activity Not available.
METAR KBPK 022353Z AUTO 16003KT 10SM CLR 24/19 A2998 RMK AO2 SLP144 60001 T02390194 10256 20200 53013

More Conditions Fewer Conditions

10-Day Weather Forecast

Almanac

Astronomy

Sep. 02, 2014 Rise Set
Actual Time 6:43 AM CDT 7:38 PM CDT
Civil Twilight 6:16 AM CDT 8:05 PM CDT
Nautical Twilight 5:45 AM CDT 8:36 PM CDT
Astronomical Twilight 5:13 AM CDT 9:08 PM CDT
Moon 2:18 PM CDT (9/2) No Moon Set
Length of Visible Light 13h 48m
Length of Day
12h 55m
Tomorrow will be 2m 15s shorter.
First Quarter, 56% of the Moon is Illuminated
Today
First Quarter
Sep 8
Full
Sep 15
Last Quarter
Sep 24
New
Oct 1
First Quarter

Today's Extremes

State Highs State Lows

Community

WunderPhotos

Upload Photos

1,749,808 photos uploaded!

Nearby

Air Quality

  Air Quality AQ Index Pollutant
Yesterday Good
OZONE
Yesterday Good
PM10
Current Good
OZONE
Current Good
PM2.5
Tuesday Good
OZONE
Tuesday Good
PM2.5
Wednesday Good
OZONE
Wednesday Good
PM2.5
Thursday Good
OZONE
Thursday Good
PM2.5
Friday Good
OZONE
Friday Good
PM2.5
Saturday Good
OZONE
Saturday Good
PM2.5

Snow Depth

Station Depth Elevation
No new snow has been reported.

Earthquake Activity

City Distance Mag. Time & Date
No recent earthquake activity has been reported nearby.
Minimum magnitude displayed is 2.5.

Coastal Water Temperatures

Place Temperature
No Stations Reporting

Nearby Weather Stations